sensor_id;sensor_type;location;lat;lon;timestamp;pressure;altitude;pressure_sealevel;temperature;humidity
40982;BME280;26708;50.304;19.028;2023-04-15T00:01:01;96719.28;;;10.11;61.42
40982;BME280;26708;50.304;19.028;2023-04-15T00:03:10;96675.16;;;10.01;61.35
40982;BME280;26708;50.304;19.028;2023-04-15T00:05:20;96935.88;;;11.38;61.22
40982;BME280;26708;50.304;19.028;2023-04-15T00:07:31;96687.63;;;9.93;61.28
40982;BME280;26708;50.304;19.028;2023-04-15T00:15:12;96635.50;;;9.88;61.13
40982;BME280;26708;50.304;19.028;2023-04-15T00:17:21;96931.41;;;11.41;61.11
40982;BME280;26708;50.304;19.028;2023-04-15T00:19:30;96780.31;;;10.38;61.22
40982;BME280;26708;50.304;19.028;2023-04-15T00:21:36;96947.53;;;11.55;61.40
40982;BME280;26708;50.304;19.028;2023-04-15T00:23:40;96866.72;;;10.91;61.42
40982;BME280;26708;50.304;19.028;2023-04-15T00:25:45;96850.03;;;10.66;61.45
40982;BME280;26708;50.304;19.028;2023-04-15T00:27:52;96879.34;;;10.77;61.68
40982;BME280;26708;50.304;19.028;2023-04-15T00:29:58;97018.66;;;11.71;61.94
40982;BME280;26708;50.304;19.028;2023-04-15T00:32:04;96985.38;;;11.47;61.89
40982;BME280;26708;50.304;19.028;2023-04-15T00:34:10;97031.19;;;11.61;61.86
40982;BME280;26708;50.304;19.028;2023-04-15T00:36:20;96765.75;;;10.29;61.81
40982;BME280;26708;50.304;19.028;2023-04-15T00:38:25;97092.69;;;12.06;61.66
40982;BME280;26708;50.304;19.028;2023-04-15T00:40:31;96937.97;;;11.28;61.54
40982;BME280;26708;50.304;19.028;2023-04-15T00:42:37;96838.41;;;10.75;61.38
40982;BME280;26708;50.304;19.028;2023-04-15T00:44:42;96933.50;;;11.04;61.49
40982;BME280;26708;50.304;19.028;2023-04-15T00:46:50;97016.81;;;11.74;61.63
40982;BME280;26708;50.304;19.028;2023-04-15T00:48:57;96845.63;;;10.67;61.60
40982;BME280;26708;50.304;19.028;2023-04-15T00:51:05;96832.88;;;10.56;61.59
40982;BME280;26708;50.304;19.028;2023-04-15T00:53:18;97011.94;;;11.62;61.81
40982;BME280;26708;50.304;19.028;2023-04-15T01:00:51;96751.13;;;9.95;61.71
40982;BME280;26708;50.304;19.028;2023-04-15T01:03:01;97090.59;;;12.15;61.67
40982;BME280;26708;50.304;19.028;2023-04-15T01:05:22;96788.63;;;10.23;61.65
40982;BME280;26708;50.304;19.028;2023-04-15T01:07:41;97034.53;;;11.66;61.60
40982;BME280;26708;50.304;19.028;2023-04-15T01:09:51;96913.84;;;11.17;61.55
40982;BME280;26708;50.304;19.028;2023-04-15T01:11:58;97135.88;;;12.22;61.52
40982;BME280;26708;50.304;19.028;2023-04-15T01:18:34;96894.41;;;10.98;61.44
40982;BME280;26708;50.304;19.028;2023-04-15T01:22:06;97095.03;;;12.13;61.66
40982;BME280;26708;50.304;19.028;2023-04-15T01:34:29;97104.59;;;12.16;61.80
40982;BME280;26708;50.304;19.028;2023-04-15T01:37:47;96700.69;;;9.62;61.64
40982;BME280;26708;50.304;19.028;2023-04-15T01:49:46;96752.47;;;10.08;61.32
40982;BME280;26708;50.304;19.028;2023-04-15T02:12:54;96772.91;;;9.65;61.92
40982;BME280;26708;50.304;19.028;2023-04-15T02:19:03;96906.97;;;10.58;62.21
40982;BME280;26708;50.304;19.028;2023-04-15T02:21:43;96777.28;;;9.64;62.06
40982;BME280;26708;50.304;19.028;2023-04-15T02:24:17;96943.50;;;10.60;62.27
40982;BME280;26708;50.304;19.028;2023-04-15T02:27:07;96940.72;;;10.66;62.36
40982;BME280;26708;50.304;19.028;2023-04-15T02:29:17;96776.16;;;9.73;62.29
40982;BME280;26708;50.304;19.028;2023-04-15T02:31:23;96775.38;;;9.69;62.19
40982;BME280;26708;50.304;19.028;2023-04-15T02:33:28;97091.66;;;11.55;62.06
40982;BME280;26708;50.304;19.028;2023-04-15T02:35:37;97137.88;;;11.85;62.37
40982;BME280;26708;50.304;19.028;2023-04-15T02:37:45;97118.25;;;11.71;62.32
40982;BME280;26708;50.304;19.028;2023-04-15T02:39:50;96729.72;;;9.52;62.29
40982;BME280;26708;50.304;19.028;2023-04-15T02:41:56;96784.91;;;9.70;62.39
40982;BME280;26708;50.304;19.028;2023-04-15T02:44:01;96785.97;;;9.63;62.34
40982;BME280;26708;50.304;19.028;2023-04-15T02:46:13;96817.94;;;9.73;62.32
40982;BME280;26708;50.304;19.028;2023-04-15T02:48:48;96787.13;;;9.53;62.25
40982;BME280;26708;50.304;19.028;2023-04-15T02:51:10;97176.63;;;11.76;62.20
40982;BME280;26708;50.304;19.028;2023-04-15T02:53:16;97167.13;;;11.73;61.95
40982;BME280;26708;50.304;19.028;2023-04-15T02:55:23;97070.13;;;11.17;61.95
40982;BME280;26708;50.304;19.028;2023-04-15T02:57:29;97117.31;;;11.44;61.32
40982;BME280;26708;50.304;19.028;2023-04-15T02:59:39;97055.78;;;10.99;61.23
40982;BME280;26708;50.304;19.028;2023-04-15T03:05:26;96932.97;;;10.32;60.52
40982;BME280;26708;50.304;19.028;2023-04-15T03:07:32;96828.19;;;9.48;60.41
40982;BME280;26708;50.304;19.028;2023-04-15T03:09:51;96951.53;;;10.23;60.37
40982;BME280;26708;50.304;19.028;2023-04-15T03:12:05;96806.59;;;9.42;59.97
40982;BME280;26708;50.304;19.028;2023-04-15T03:14:11;97199.03;;;11.57;60.05
40982;BME280;26708;50.304;19.028;2023-04-15T03:17:23;97174.66;;;11.55;59.30
40982;BME280;26708;50.304;19.028;2023-04-15T03:21:06;96835.78;;;9.24;58.88
40982;BME280;26708;50.304;19.028;2023-04-15T03:24:19;96838.19;;;9.31;58.13
40982;BME280;26708;50.304;19.028;2023-04-15T03:37:24;97069.16;;;10.58;55.80
40982;BME280;26708;50.304;19.028;2023-04-15T03:42:48;96988.78;;;9.99;55.33
40982;BME280;26708;50.304;19.028;2023-04-15T03:45:39;97194.78;;;11.22;55.35
40982;BME280;26708;50.304;19.028;2023-04-15T03:48:21;97188.75;;;11.19;55.36
40982;BME280;26708;50.304;19.028;2023-04-15T03:51:48;96985.75;;;9.82;55.02
40982;BME280;26708;50.304;19.028;2023-04-15T03:57:47;97208.25;;;11.09;54.70
40982;BME280;26708;50.304;19.028;2023-04-15T04:00:02;96912.53;;;9.15;54.53
40982;BME280;26708;50.304;19.028;2023-04-15T04:02:33;96926.34;;;9.20;54.45
40982;BME280;26708;50.304;19.028;2023-04-15T04:07:29;97082.72;;;10.05;54.25
40982;BME280;26708;50.304;19.028;2023-04-15T04:29:19;97036.97;;;9.89;54.07
40982;BME280;26708;50.304;19.028;2023-04-15T04:31:33;97118.50;;;10.38;53.85
40982;BME280;26708;50.304;19.028;2023-04-15T04:33:38;97034.50;;;9.83;54.20
40982;BME280;26708;50.304;19.028;2023-04-15T04:35:46;97237.84;;;11.12;54.23
40982;BME280;26708;50.304;19.028;2023-04-15T04:38:00;97040.47;;;9.88;54.08
40982;BME280;26708;50.304;19.028;2023-04-15T04:51:36;96979.75;;;9.42;54.00
40982;BME280;26708;50.304;19.028;2023-04-15T04:53:46;96983.84;;;9.52;54.10
40982;BME280;26708;50.304;19.028;2023-04-15T04:55:55;96993.06;;;9.68;54.31
40982;BME280;26708;50.304;19.028;2023-04-15T04:58:03;97069.53;;;10.11;53.97
40982;BME280;26708;50.304;19.028;2023-04-15T05:00:11;97243.88;;;11.14;54.01
40982;BME280;26708;50.304;19.028;2023-04-15T05:06:13;97142.53;;;10.52;54.11
40982;BME280;26708;50.304;19.028;2023-04-15T05:18:40;97067.94;;;10.04;53.82
40982;BME280;26708;50.304;19.028;2023-04-15T05:22:14;97075.31;;;10.22;53.76
40982;BME280;26708;50.304;19.028;2023-04-15T05:42:43;97017.69;;;9.93;53.94
40982;BME280;26708;50.304;19.028;2023-04-15T05:45:35;97260.69;;;11.38;53.75
40982;BME280;26708;50.304;19.028;2023-04-15T05:47:40;97196.38;;;10.96;53.94
40982;BME280;26708;50.304;19.028;2023-04-15T05:49:47;96915.31;;;9.44;53.87
40982;BME280;26708;50.304;19.028;2023-04-15T05:52:24;97315.00;;;11.63;54.18
40982;BME280;26708;50.304;19.028;2023-04-15T05:55:00;97049.75;;;10.33;54.25
40982;BME280;26708;50.304;19.028;2023-04-15T05:57:47;97298.22;;;11.70;54.29
40982;BME280;26708;50.304;19.028;2023-04-15T06:00:21;97289.41;;;11.74;54.54
40982;BME280;26708;50.304;19.028;2023-04-15T06:03:01;97231.94;;;11.36;54.61
40982;BME280;26708;50.304;19.028;2023-04-15T06:05:10;97315.81;;;11.97;54.27
40982;BME280;26708;50.304;19.028;2023-04-15T06:07:38;97297.31;;;12.03;53.90
40982;BME280;26708;50.304;19.028;2023-04-15T06:09:45;97222.91;;;11.46;53.72
40982;BME280;26708;50.304;19.028;2023-04-15T06:12:34;96923.84;;;9.86;53.53
40982;BME280;26708;50.304;19.028;2023-04-15T06:14:47;97061.81;;;10.71;53.45
40982;BME280;26708;50.304;19.028;2023-04-15T06:16:54;97239.97;;;11.91;53.01
40982;BME280;26708;50.304;19.028;2023-04-15T06:18:58;97306.06;;;12.32;53.06
40982;BME280;26708;50.304;19.028;2023-04-15T06:21:04;97238.91;;;11.96;52.58
40982;BME280;26708;50.304;19.028;2023-04-15T06:23:09;97235.34;;;11.99;52.42
40982;BME280;26708;50.304;19.028;2023-04-15T06:28:07;96940.16;;;10.26;52.47
40982;BME280;26708;50.304;19.028;2023-04-15T06:30:30;97312.63;;;12.45;52.40
40982;BME280;26708;50.304;19.028;2023-04-15T06:33:19;97186.59;;;11.63;52.31
40982;BME280;26708;50.304;19.028;2023-04-15T06:38:22;97097.78;;;11.83;51.35
40982;BME280;26708;50.304;19.028;2023-04-15T06:40:28;97207.88;;;12.67;50.46
40982;BME280;26708;50.304;19.028;2023-04-15T06:42:32;97146.56;;;12.68;49.42
40982;BME280;26708;50.304;19.028;2023-04-15T06:44:38;97263.63;;;13.51;48.39
40982;BME280;26708;50.304;19.028;2023-04-15T06:46:49;97159.50;;;12.98;47.75
40982;BME280;26708;50.304;19.028;2023-04-15T06:48:53;97142.91;;;12.98;47.51
40982;BME280;26708;50.304;19.028;2023-04-15T06:50:58;97340.75;;;14.25;46.65
40982;BME280;26708;50.304;19.028;2023-04-15T06:53:04;97323.09;;;14.27;45.81
40982;BME280;26708;50.304;19.028;2023-04-15T06:55:09;97109.94;;;12.89;45.84
40982;BME280;26708;50.304;19.028;2023-04-15T06:57:14;97139.66;;;13.16;45.16
40982;BME280;26708;50.304;19.028;2023-04-15T06:59:23;97324.66;;;14.33;45.52
40982;BME280;26708;50.304;19.028;2023-04-15T07:01:27;97121.41;;;13.11;45.84
40982;BME280;26708;50.304;19.028;2023-04-15T07:03:35;97335.19;;;14.77;45.50
40982;BME280;26708;50.304;19.028;2023-04-15T07:05:40;97338.09;;;14.93;44.66
40982;BME280;26708;50.304;19.028;2023-04-15T07:07:46;97016.53;;;13.07;44.12
40982;BME280;26708;50.304;19.028;2023-04-15T07:10:00;97188.13;;;14.24;43.84
40982;BME280;26708;50.304;19.028;2023-04-15T07:12:09;97183.41;;;14.32;42.73
40982;BME280;26708;50.304;19.028;2023-04-15T07:14:17;97159.19;;;14.01;41.77
40982;BME280;26708;50.304;19.028;2023-04-15T07:16:30;97025.88;;;13.37;41.52
40982;BME280;26708;50.304;19.028;2023-04-15T07:19:03;97133.56;;;14.06;41.50
40982;BME280;26708;50.304;19.028;2023-04-15T07:21:09;97013.94;;;13.28;41.86
40982;BME280;26708;50.304;19.028;2023-04-15T07:23:19;97151.84;;;14.10;42.16
40982;BME280;26708;50.304;19.028;2023-04-15T07:28:39;97222.41;;;14.44;41.76
40982;BME280;26708;50.304;19.028;2023-04-15T07:31:02;97170.06;;;14.15;42.42
40982;BME280;26708;50.304;19.028;2023-04-15T07:33:08;97239.63;;;14.52;41.92
40982;BME280;26708;50.304;19.028;2023-04-15T07:35:18;97149.81;;;14.17;41.58
40982;BME280;26708;50.304;19.028;2023-04-15T07:37:25;97346.50;;;15.45;41.42
40982;BME280;26708;50.304;19.028;2023-04-15T07:39:30;97029.06;;;13.45;41.26
40982;BME280;26708;50.304;19.028;2023-04-15T07:47:46;97343.41;;;15.97;39.17
40982;BME280;26708;50.304;19.028;2023-04-15T07:50:01;97165.50;;;15.04;39.16
40982;BME280;26708;50.304;19.028;2023-04-15T07:52:20;97072.72;;;14.56;38.45
40982;BME280;26708;50.304;19.028;2023-04-15T07:54:27;97181.84;;;15.51;38.22
40982;BME280;26708;50.304;19.028;2023-04-15T07:56:33;97228.25;;;15.95;37.12
40982;BME280;26708;50.304;19.028;2023-04-15T07:58:38;97035.31;;;14.88;36.98
40982;BME280;26708;50.304;19.028;2023-04-15T08:00:43;97194.81;;;15.75;36.29
40982;BME280;26708;50.304;19.028;2023-04-15T08:02:48;97099.09;;;15.35;36.31
40982;BME280;26708;50.304;19.028;2023-04-15T08:04:53;97065.91;;;15.11;35.15
40982;BME280;26708;50.304;19.028;2023-04-15T08:06:58;97121.13;;;15.52;35.71
40982;BME280;26708;50.304;19.028;2023-04-15T08:09:07;97226.56;;;16.12;35.13
40982;BME280;26708;50.304;19.028;2023-04-15T08:13:57;97068.81;;;15.05;35.55
40982;BME280;26708;50.304;19.028;2023-04-15T08:16:17;97186.28;;;15.89;35.92
40982;BME280;26708;50.304;19.028;2023-04-15T08:18:27;97042.28;;;14.89;35.50
40982;BME280;26708;50.304;19.028;2023-04-15T08:20:32;97140.78;;;15.65;35.87
40982;BME280;26708;50.304;19.028;2023-04-15T08:22:38;97304.78;;;16.51;35.20
40982;BME280;26708;50.304;19.028;2023-04-15T08:24:47;96964.09;;;14.31;36.00
40982;BME280;26708;50.304;19.028;2023-04-15T08:26:52;97085.34;;;15.08;35.73
40982;BME280;26708;50.304;19.028;2023-04-15T08:29:01;97025.13;;;14.61;35.52
40982;BME280;26708;50.304;19.028;2023-04-15T08:31:06;97208.75;;;15.59;35.61
40982;BME280;26708;50.304;19.028;2023-04-15T08:33:11;97273.91;;;15.97;35.78
40982;BME280;26708;50.304;19.028;2023-04-15T08:35:17;97340.41;;;16.24;35.91
40982;BME280;26708;50.304;19.028;2023-04-15T08:37:22;97321.41;;;15.97;35.40
40982;BME280;26708;50.304;19.028;2023-04-15T08:39:27;97338.91;;;16.19;35.23
40982;BME280;26708;50.304;19.028;2023-04-15T08:41:55;97048.41;;;14.50;35.36
40982;BME280;26708;50.304;19.028;2023-04-15T08:44:13;97157.91;;;15.17;35.29
40982;BME280;26708;50.304;19.028;2023-04-15T08:46:20;97176.00;;;15.24;35.15
40982;BME280;26708;50.304;19.028;2023-04-15T08:48:28;96989.97;;;14.22;35.02
40982;BME280;26708;50.304;19.028;2023-04-15T08:50:36;97070.72;;;14.61;35.71
40982;BME280;26708;50.304;19.028;2023-04-15T08:52:42;97270.63;;;15.92;35.67
40982;BME280;26708;50.304;19.028;2023-04-15T08:54:47;97136.94;;;15.14;34.08
40982;BME280;26708;50.304;19.028;2023-04-15T08:56:56;97164.16;;;15.34;34.05
40982;BME280;26708;50.304;19.028;2023-04-15T08:59:03;97339.06;;;16.53;34.33
40982;BME280;26708;50.304;19.028;2023-04-15T09:01:31;97025.78;;;14.46;34.22
40982;BME280;26708;50.304;19.028;2023-04-15T09:07:17;97136.03;;;15.15;34.29
40982;BME280;26708;50.304;19.028;2023-04-15T09:09:22;97133.41;;;15.15;34.10
40982;BME280;26708;50.304;19.028;2023-04-15T09:11:39;97355.97;;;16.30;34.63
40982;BME280;26708;50.304;19.028;2023-04-15T09:14:15;97346.47;;;16.26;34.35
40982;BME280;26708;50.304;19.028;2023-04-15T09:16:55;97212.72;;;15.49;33.97
40982;BME280;26708;50.304;19.028;2023-04-15T09:19:19;97224.28;;;15.26;33.96
40982;BME280;26708;50.304;19.028;2023-04-15T09:21:30;97195.59;;;15.19;34.21
40982;BME280;26708;50.304;19.028;2023-04-15T09:23:37;97240.00;;;15.28;34.39
40982;BME280;26708;50.304;19.028;2023-04-15T09:25:44;97159.03;;;14.90;34.54
40982;BME280;26708;50.304;19.028;2023-04-15T09:27:55;96959.53;;;13.73;34.30
40982;BME280;26708;50.304;19.028;2023-04-15T09:30:07;97354.91;;;16.14;34.49
40982;BME280;26708;50.304;19.028;2023-04-15T09:32:15;97151.28;;;14.87;33.83
40982;BME280;26708;50.304;19.028;2023-04-15T09:34:34;97350.28;;;16.19;33.89
40982;BME280;26708;50.304;19.028;2023-04-15T09:36:52;97275.41;;;15.82;33.95
40982;BME280;26708;50.304;19.028;2023-04-15T09:38:59;97256.91;;;15.64;33.64
40982;BME280;26708;50.304;19.028;2023-04-15T09:41:16;97287.47;;;15.89;34.11
40982;BME280;26708;50.304;19.028;2023-04-15T09:43:22;97163.28;;;15.14;34.05
40982;BME280;26708;50.304;19.028;2023-04-15T09:45:32;97100.34;;;14.86;33.52
40982;BME280;26708;50.304;19.028;2023-04-15T09:47:50;97283.63;;;16.14;33.36
40982;BME280;26708;50.304;19.028;2023-04-15T09:49:58;97001.09;;;14.48;33.16
40982;BME280;26708;50.304;19.028;2023-04-15T09:55:18;97153.22;;;15.23;32.75
40982;BME280;26708;50.304;19.028;2023-04-15T09:57:46;97000.06;;;14.51;31.78
40982;BME280;26708;50.304;19.028;2023-04-15T09:59:56;97017.28;;;14.59;31.63
40982;BME280;26708;50.304;19.028;2023-04-15T10:02:42;97193.03;;;15.76;31.77
40982;BME280;26708;50.304;19.028;2023-04-15T10:04:48;97034.69;;;14.82;31.28
40982;BME280;26708;50.304;19.028;2023-04-15T10:06:55;97330.28;;;16.52;32.08
40982;BME280;26708;50.304;19.028;2023-04-15T10:09:06;97143.69;;;15.39;32.31
40982;BME280;26708;50.304;19.028;2023-04-15T10:11:12;97340.44;;;16.61;32.21
40982;BME280;26708;50.304;19.028;2023-04-15T10:13:19;97098.78;;;15.22;31.76
40982;BME280;26708;50.304;19.028;2023-04-15T10:15:32;97073.44;;;14.80;31.56
40982;BME280;26708;50.304;19.028;2023-04-15T10:17:59;97280.41;;;16.08;31.83
40982;BME280;26708;50.304;19.028;2023-04-15T10:20:10;97014.84;;;14.55;32.51
40982;BME280;26708;50.304;19.028;2023-04-15T10:22:19;97269.03;;;16.08;31.59
40982;BME280;26708;50.304;19.028;2023-04-15T10:24:26;97236.81;;;15.80;31.94
40982;BME280;26708;50.304;19.028;2023-04-15T10:26:34;97080.19;;;14.85;31.91
40982;BME280;26708;50.304;19.028;2023-04-15T10:28:43;96962.28;;;14.33;32.04
40982;BME280;26708;50.304;19.028;2023-04-15T10:30:51;97163.19;;;15.55;31.96
40982;BME280;26708;50.304;19.028;2023-04-15T10:33:00;97068.81;;;15.05;32.03
40982;BME280;26708;50.304;19.028;2023-04-15T10:35:08;97341.84;;;16.68;31.94
40982;BME280;26708;50.304;19.028;2023-04-15T10:37:20;97265.88;;;16.36;31.67
40982;BME280;26708;50.304;19.028;2023-04-15T10:39:42;97341.09;;;16.85;31.79
40982;BME280;26708;50.304;19.028;2023-04-15T10:42:05;97337.63;;;16.84;31.51
40982;BME280;26708;50.304;19.028;2023-04-15T10:44:28;96983.41;;;14.70;31.43
40982;BME280;26708;50.304;19.028;2023-04-15T10:46:50;97049.84;;;15.17;31.59
40982;BME280;26708;50.304;19.028;2023-04-15T10:49:24;97329.25;;;16.93;31.46
40982;BME280;26708;50.304;19.028;2023-04-15T10:51:52;97045.06;;;15.25;31.59
40982;BME280;26708;50.304;19.028;2023-04-15T10:54:02;97153.31;;;15.79;31.69
40982;BME280;26708;50.304;19.028;2023-04-15T10:56:16;97298.72;;;16.68;31.15
40982;BME280;26708;50.304;19.028;2023-04-15T10:58:23;97294.09;;;16.73;31.10
40982;BME280;26708;50.304;19.028;2023-04-15T11:00:31;97169.47;;;16.10;30.76
40982;BME280;26708;50.304;19.028;2023-04-15T11:02:42;97060.63;;;15.49;30.72
40982;BME280;26708;50.304;19.028;2023-04-15T11:04:55;97351.94;;;17.16;30.72
40982;BME280;26708;50.304;19.028;2023-04-15T11:07:07;97206.44;;;16.28;30.58
40982;BME280;26708;50.304;19.028;2023-04-15T11:09:31;96984.81;;;14.97;30.91
40982;BME280;26708;50.304;19.028;2023-04-15T11:12:04;97349.25;;;16.99;30.79
40982;BME280;26708;50.304;19.028;2023-04-15T11:14:15;97010.94;;;14.83;31.02
40982;BME280;26708;50.304;19.028;2023-04-15T11:16:24;96990.78;;;14.82;31.07
40982;BME280;26708;50.304;19.028;2023-04-15T11:18:32;97125.06;;;15.62;31.40
40982;BME280;26708;50.304;19.028;2023-04-15T11:20:51;97066.28;;;15.03;32.53
40982;BME280;26708;50.304;19.028;2023-04-15T11:23:37;96997.66;;;14.66;33.49
40982;BME280;26708;50.304;19.028;2023-04-15T11:26:06;97075.03;;;14.84;34.05
40982;BME280;26708;50.304;19.028;2023-04-15T11:28:15;97238.38;;;15.84;34.55
40982;BME280;26708;50.304;19.028;2023-04-15T11:30:23;96998.19;;;14.34;34.62
40982;BME280;26708;50.304;19.028;2023-04-15T11:32:46;97039.25;;;14.58;35.12
40982;BME280;26708;50.304;19.028;2023-04-15T11:34:52;97103.28;;;14.80;34.36
40982;BME280;26708;50.304;19.028;2023-04-15T11:37:07;97024.78;;;14.28;34.20
40982;BME280;26708;50.304;19.028;2023-04-15T11:39:21;97216.81;;;15.56;34.76
40982;BME280;26708;50.304;19.028;2023-04-15T11:43:57;97038.66;;;14.52;34.98
40982;BME280;26708;50.304;19.028;2023-04-15T11:46:06;97351.22;;;16.38;34.87
40982;BME280;26708;50.304;19.028;2023-04-15T11:48:18;97384.88;;;16.33;34.71
40982;BME280;26708;50.304;19.028;2023-04-15T11:50:24;97282.75;;;15.96;35.26
40982;BME280;26708;50.304;19.028;2023-04-15T11:55:02;97368.00;;;16.18;35.27
40982;BME280;26708;50.304;19.028;2023-04-15T11:59:54;97184.31;;;15.15;35.24
40982;BME280;26708;50.304;19.028;2023-04-15T12:02:10;97007.44;;;14.01;35.65
40982;BME280;26708;50.304;19.028;2023-04-15T12:04:18;97020.69;;;14.00;35.55
40982;BME280;26708;50.304;19.028;2023-04-15T12:06:32;97379.06;;;16.06;35.17
40982;BME280;26708;50.304;19.028;2023-04-15T12:09:02;97021.53;;;14.22;35.36
40982;BME280;26708;50.304;19.028;2023-04-15T12:11:19;97307.66;;;15.89;34.57
40982;BME280;26708;50.304;19.028;2023-04-15T12:13:56;97275.41;;;15.62;34.39
40982;BME280;26708;50.304;19.028;2023-04-15T12:16:03;97154.03;;;15.05;34.54
40982;BME280;26708;50.304;19.028;2023-04-15T12:18:16;97353.28;;;16.12;34.68
40982;BME280;26708;50.304;19.028;2023-04-15T12:20:24;97154.22;;;15.01;34.88
40982;BME280;26708;50.304;19.028;2023-04-15T12:22:38;97257.22;;;15.76;34.72
40982;BME280;26708;50.304;19.028;2023-04-15T12:24:54;97355.56;;;16.39;34.22
40982;BME280;26708;50.304;19.028;2023-04-15T12:27:15;97156.19;;;15.16;33.86
40982;BME280;26708;50.304;19.028;2023-04-15T12:29:25;97207.31;;;15.52;34.16
40982;BME280;26708;50.304;19.028;2023-04-15T12:31:33;97164.66;;;15.02;34.42
40982;BME280;26708;50.304;19.028;2023-04-15T12:33:43;97290.13;;;15.48;34.94
40982;BME280;26708;50.304;19.028;2023-04-15T12:36:18;97199.81;;;14.81;35.22
40982;BME280;26708;50.304;19.028;2023-04-15T12:38:37;97275.59;;;15.18;35.04
40982;BME280;26708;50.304;19.028;2023-04-15T12:43:49;97037.25;;;13.59;35.02
40982;BME280;26708;50.304;19.028;2023-04-15T12:45:55;97106.84;;;14.16;35.14
40982;BME280;26708;50.304;19.028;2023-04-15T12:48:00;97303.03;;;15.34;35.18
40982;BME280;26708;50.304;19.028;2023-04-15T12:50:06;97300.53;;;15.31;35.07
40982;BME280;26708;50.304;19.028;2023-04-15T12:52:12;97365.78;;;15.67;34.73
40982;BME280;26708;50.304;19.028;2023-04-15T12:54:17;97209.06;;;14.70;35.12
40982;BME280;26708;50.304;19.028;2023-04-15T12:56:22;97358.72;;;15.68;35.67
40982;BME280;26708;50.304;19.028;2023-04-15T12:58:28;97314.06;;;15.43;35.32
40982;BME280;26708;50.304;19.028;2023-04-15T13:00:35;97218.59;;;14.94;35.06
40982;BME280;26708;50.304;19.028;2023-04-15T13:02:42;97127.28;;;14.31;34.60
40982;BME280;26708;50.304;19.028;2023-04-15T13:04:48;97238.09;;;15.11;34.30
40982;BME280;26708;50.304;19.028;2023-04-15T13:06:52;97314.00;;;15.65;34.32
40982;BME280;26708;50.304;19.028;2023-04-15T13:08:58;97177.28;;;14.94;34.32
40982;BME280;26708;50.304;19.028;2023-04-15T13:11:04;97191.75;;;15.06;34.09
40982;BME280;26708;50.304;19.028;2023-04-15T13:13:10;97261.19;;;15.66;33.90
40982;BME280;26708;50.304;19.028;2023-04-15T13:15:14;97217.06;;;15.50;33.47
40982;BME280;26708;50.304;19.028;2023-04-15T13:17:24;97192.81;;;15.42;33.23
40982;BME280;26708;50.304;19.028;2023-04-15T13:19:29;97359.69;;;16.45;33.19
40982;BME280;26708;50.304;19.028;2023-04-15T13:21:34;97310.56;;;16.41;32.95
40982;BME280;26708;50.304;19.028;2023-04-15T13:23:40;97155.38;;;15.54;32.75
40982;BME280;26708;50.304;19.028;2023-04-15T13:25:45;97282.56;;;16.18;31.93
40982;BME280;26708;50.304;19.028;2023-04-15T13:27:50;97352.84;;;16.79;32.03
40982;BME280;26708;50.304;19.028;2023-04-15T13:29:56;97241.03;;;16.04;32.08
40982;BME280;26708;50.304;19.028;2023-04-15T13:32:00;97311.94;;;16.49;31.77
40982;BME280;26708;50.304;19.028;2023-04-15T13:34:07;97343.59;;;16.51;31.98
40982;BME280;26708;50.304;19.028;2023-04-15T13:36:13;97326.91;;;16.49;32.19
40982;BME280;26708;50.304;19.028;2023-04-15T13:38:18;97376.69;;;16.78;31.60
40982;BME280;26708;50.304;19.028;2023-04-15T13:40:23;97367.97;;;16.76;31.26
40982;BME280;26708;50.304;19.028;2023-04-15T13:42:29;97307.09;;;16.40;31.38
40982;BME280;26708;50.304;19.028;2023-04-15T13:44:33;97212.56;;;15.72;31.32
40982;BME280;26708;50.304;19.028;2023-04-15T13:47:20;97319.22;;;16.44;31.19
40982;BME280;26708;50.304;19.028;2023-04-15T13:49:28;97242.22;;;15.97;31.27
40982;BME280;26708;50.304;19.028;2023-04-15T13:51:33;97058.75;;;14.74;31.36
40982;BME280;26708;50.304;19.028;2023-04-15T13:53:38;97352.25;;;16.34;31.47
40982;BME280;26708;50.304;19.028;2023-04-15T13:55:43;97310.38;;;16.07;31.36
40982;BME280;26708;50.304;19.028;2023-04-15T13:57:48;97358.41;;;16.35;31.83
40982;BME280;26708;50.304;19.028;2023-04-15T13:59:54;97259.78;;;15.58;32.19
40982;BME280;26708;50.304;19.028;2023-04-15T14:02:00;97055.94;;;14.17;32.73
40982;BME280;26708;50.304;19.028;2023-04-15T14:04:05;97162.78;;;14.64;32.66
40982;BME280;26708;50.304;19.028;2023-04-15T14:06:15;97377.63;;;15.99;33.11
40982;BME280;26708;50.304;19.028;2023-04-15T14:08:22;97156.25;;;14.53;33.17
40982;BME280;26708;50.304;19.028;2023-04-15T14:10:57;97385.00;;;15.91;32.91
40982;BME280;26708;50.304;19.028;2023-04-15T14:13:02;97207.75;;;14.60;32.81
40982;BME280;26708;50.304;19.028;2023-04-15T14:15:09;97264.44;;;14.90;32.94
40982;BME280;26708;50.304;19.028;2023-04-15T14:17:14;97203.81;;;14.70;33.34
40982;BME280;26708;50.304;19.028;2023-04-15T14:19:19;97052.97;;;13.82;33.29
40982;BME280;26708;50.304;19.028;2023-04-15T14:21:28;97398.91;;;15.74;33.68
40982;BME280;26708;50.304;19.028;2023-04-15T14:23:32;97382.09;;;15.77;33.15
40982;BME280;26708;50.304;19.028;2023-04-15T14:25:45;97382.88;;;15.79;33.81
40982;BME280;26708;50.304;19.028;2023-04-15T14:28:11;97336.34;;;15.56;33.26
40982;BME280;26708;50.304;19.028;2023-04-15T14:30:17;97178.19;;;14.52;33.39
40982;BME280;26708;50.304;19.028;2023-04-15T14:32:26;97219.03;;;14.83;33.71
40982;BME280;26708;50.304;19.028;2023-04-15T14:34:31;97199.47;;;14.69;33.98
40982;BME280;26708;50.304;19.028;2023-04-15T14:36:42;97298.16;;;15.25;34.18
40982;BME280;26708;50.304;19.028;2023-04-15T14:38:49;97228.72;;;14.61;34.38
40982;BME280;26708;50.304;19.028;2023-04-15T14:40:53;97307.97;;;15.21;34.67
40982;BME280;26708;50.304;19.028;2023-04-15T14:42:59;97120.00;;;13.93;34.84